Time;durP1;ratioP1;P1;durP2;ratioP2;P2;SDS_P1;SDS_P2;PMS_P1;PMS_P2;Temp;Humidity;BMP_temperature;BMP_pressure;BME280_temperature;BME280_humidity;BME280_pressure;Samples;Min_cycle;Max_cycle;Signal;HPM_P1;HPM_P2
2023/01/31 00:01:43;;;;;;;4.57;2.40;;;15.30;62.70;;;;;;5090425;28;20212;-44
2023/01/31 00:04:15;;;;;;;3.33;1.67;;;15.30;62.70;;;;;;5089981;28;20606;-45
2023/01/31 00:06:50;;;;;;;5.00;1.93;;;15.30;62.80;;;;;;5088996;28;20509;-43
2023/01/31 00:09:26;;;;;;;4.77;2.07;;;15.30;62.90;;;;;;5091368;28;20226;-45
2023/01/31 00:11:56;;;;;;;4.57;2.10;;;15.30;62.80;;;;;;5092120;28;20269;-43
2023/01/31 00:14:29;;;;;;;4.73;2.03;;;15.30;62.80;;;;;;5086515;28;20751;-45
2023/01/31 00:17:01;;;;;;;4.97;2.10;;;15.20;62.90;;;;;;5091497;28;20208;-44
2023/01/31 00:19:45;;;;;;;4.80;1.80;;;15.20;62.80;;;;;;5088876;28;20238;-44
2023/01/31 00:22:15;;;;;;;4.47;2.03;;;15.20;62.80;;;;;;5089942;28;20193;-44
2023/01/31 00:24:46;;;;;;;5.33;1.70;;;15.20;63.00;;;;;;5086919;28;20519;-44
2023/01/31 00:27:19;;;;;;;6.13;2.27;;;15.20;63.00;;;;;;5086648;28;20683;-45
2023/01/31 00:29:50;;;;;;;4.27;2.03;;;15.20;63.00;;;;;;5079017;28;20209;-45
2023/01/31 00:32:20;;;;;;;5.00;1.97;;;15.20;63.10;;;;;;5089227;28;20228;-45
2023/01/31 00:34:53;;;;;;;6.80;1.93;;;15.20;63.00;;;;;;5095451;28;20311;-45
2023/01/31 00:37:25;;;;;;;4.43;2.00;;;15.20;63.10;;;;;;5077619;28;20227;-46
2023/01/31 00:39:56;;;;;;;3.57;1.80;;;15.20;63.10;;;;;;5084744;28;20212;-44
2023/01/31 00:42:25;;;;;;;4.00;1.87;;;15.20;63.00;;;;;;5086592;28;20205;-43
2023/01/31 00:44:57;;;;;;;6.47;2.00;;;15.20;63.10;;;;;;5087477;28;20201;-43
2023/01/31 00:47:28;;;;;;;5.47;2.17;;;15.20;63.00;;;;;;5091360;28;20196;-44
2023/01/31 00:49:59;;;;;;;6.83;2.50;;;15.20;63.00;;;;;;5085665;28;20224;-44
2023/01/31 00:52:33;;;;;;;4.67;1.80;;;15.20;63.10;;;;;;5082063;28;20220;-44
2023/01/31 00:55:05;;;;;;;5.33;1.90;;;15.20;63.30;;;;;;5087251;28;20201;-44
2023/01/31 00:57:35;;;;;;;4.13;1.70;;;15.20;63.00;;;;;;5086379;28;20192;-43
2023/01/31 01:00:06;;;;;;;3.67;1.80;;;15.20;63.20;;;;;;5077921;28;20193;-44
2023/01/31 01:02:37;;;;;;;4.47;1.77;;;15.10;63.20;;;;;;5073392;28;20262;-44
2023/01/31 01:05:06;;;;;;;3.17;1.80;;;15.10;63.20;;;;;;5088156;28;20193;-42
2023/01/31 01:07:38;;;;;;;5.47;2.17;;;15.10;63.30;;;;;;5069917;28;20192;-44
2023/01/31 01:10:09;;;;;;;5.43;2.10;;;15.10;63.40;;;;;;5069991;28;20197;-45
2023/01/31 01:12:39;;;;;;;6.03;2.20;;;15.10;63.30;;;;;;5085608;28;20209;-43
2023/01/31 01:15:10;;;;;;;4.00;2.30;;;15.10;63.30;;;;;;5084343;28;20209;-45
2023/01/31 01:17:41;;;;;;;6.33;1.97;;;15.10;63.40;;;;;;5086737;28;20697;-44
2023/01/31 01:20:12;;;;;;;3.63;1.93;;;15.10;63.60;;;;;;5069657;28;20307;-43
2023/01/31 01:22:44;;;;;;;4.30;1.63;;;15.10;63.50;;;;;;5083778;28;20472;-45
2023/01/31 01:25:14;;;;;;;3.27;1.70;;;15.10;63.40;;;;;;5085937;28;20634;-44
2023/01/31 01:27:42;;;;;;;4.47;1.60;;;15.00;63.40;;;;;;5081604;28;20203;-44
2023/01/31 01:30:13;;;;;;;4.70;1.93;;;15.10;63.30;;;;;;5092493;28;20639;-44
2023/01/31 01:32:45;;;;;;;4.97;2.13;;;15.10;63.50;;;;;;5091692;28;21085;-44
2023/01/31 01:35:13;;;;;;;3.83;1.90;;;15.10;63.50;;;;;;5119478;27;20199;-43
2023/01/31 01:37:46;;;;;;;4.10;1.83;;;15.10;63.50;;;;;;5105974;28;20192;-44
2023/01/31 01:40:17;;;;;;;4.87;1.90;;;15.10;63.50;;;;;;5109482;28;20238;-44
2023/01/31 01:42:47;;;;;;;3.53;1.80;;;15.10;63.50;;;;;;5097300;28;20230;-45
2023/01/31 01:45:18;;;;;;;3.87;1.80;;;15.10;63.60;;;;;;5118294;27;20537;-44
2023/01/31 01:47:53;;;;;;;3.23;1.50;;;15.10;63.50;;;;;;5114986;27;20223;-44
2023/01/31 01:50:54;;;;;;;6.07;2.00;;;15.10;63.50;;;;;;5104557;28;20203;-43
2023/01/31 01:53:27;;;;;;;4.33;2.03;;;15.10;63.50;;;;;;5099994;28;20200;-44
2023/01/31 01:56:02;;;;;;;4.07;1.90;;;15.00;63.60;;;;;;5095343;27;20256;-44
2023/01/31 01:58:46;;;;;;;3.87;1.70;;;15.00;63.50;;;;;;5086387;27;20251;-43
2023/01/31 02:01:18;;;;;;;4.10;1.83;;;15.00;64.10;;;;;;5097528;28;20184;-44
2023/01/31 02:03:53;;;;;;;4.70;1.93;;;15.00;63.50;;;;;;5092589;28;20231;-43
2023/01/31 02:06:25;;;;;;;5.00;1.93;;;15.00;63.50;;;;;;5111993;27;20204;-43
2023/01/31 02:08:56;;;;;;;5.17;2.20;;;15.00;63.50;;;;;;5084260;28;20200;-44
2023/01/31 02:11:32;;;;;;;4.73;1.80;;;15.10;63.60;;;;;;5117009;27;20223;-44
2023/01/31 02:14:25;;;;;;;4.27;1.87;;;15.00;63.40;;;;;;5099693;27;20716;-45
2023/01/31 02:16:55;;;;;;;4.03;1.90;;;15.00;63.50;;;;;;5092505;27;20643;-44
2023/01/31 02:19:40;;;;;;;4.03;1.60;;;15.00;63.50;;;;;;5113302;28;20224;-44
2023/01/31 02:22:45;;;;;;;3.60;1.60;;;15.00;63.50;;;;;;5099324;28;20211;-44
2023/01/31 02:25:40;;;;;;;3.37;2.00;;;15.00;63.40;;;;;;5041630;28;20640;-44
2023/01/31 02:28:50;;;;;;;3.53;1.70;;;14.90;63.60;;;;;;5026262;28;20785;-43
2023/01/31 02:31:56;;;;;;;3.47;1.80;;;15.00;63.60;;;;;;5090495;27;20246;-43
2023/01/31 02:35:17;;;;;;;4.07;1.63;;;15.00;63.60;;;;;;5117137;27;20224;-45
2023/01/31 02:38:27;;;;;;;4.13;2.30;;;14.90;63.50;;;;;;5111079;27;20224;-45
2023/01/31 02:41:21;;;;;;;3.73;1.80;;;15.00;63.60;;;;;;5094646;28;20516;-45
2023/01/31 02:47:06;;;;;;;5.47;2.20;;;14.90;63.60;;;;;;5097473;27;20186;-43
2023/01/31 02:49:42;;;;;;;4.13;1.90;;;14.90;63.60;;;;;;5092302;28;20281;-44
2023/01/31 02:52:34;;;;;;;3.10;1.50;;;14.90;63.60;;;;;;5105490;27;20223;-45
2023/01/31 02:58:17;;;;;;;4.37;1.80;;;14.90;63.50;;;;;;5109610;27;20204;-44
2023/01/31 03:00:47;;;;;;;4.97;2.10;;;14.90;63.60;;;;;;5096568;27;20582;-44
2023/01/31 03:03:30;;;;;;;4.33;2.07;;;14.90;63.50;;;;;;5085542;28;20294;-43
2023/01/31 03:06:24;;;;;;;5.33;2.23;;;14.90;63.50;;;;;;5112599;27;20200;-44
2023/01/31 03:09:23;;;;;;;4.83;2.37;;;14.90;63.50;;;;;;5111572;27;20228;-43
2023/01/31 03:12:26;;;;;;;4.17;1.80;;;14.90;63.50;;;;;;5108793;28;20658;-44
2023/01/31 03:15:20;;;;;;;4.47;2.13;;;14.90;63.50;;;;;;5102415;27;20215;-44
2023/01/31 03:18:12;;;;;;;4.43;1.97;;;14.90;63.60;;;;;;5102915;27;20200;-44
2023/01/31 03:21:17;;;;;;;5.57;2.07;;;14.90;63.60;;;;;;5108196;27;20224;-43
2023/01/31 03:23:54;;;;;;;4.37;2.00;;;14.90;63.70;;;;;;5106400;28;20222;-43
2023/01/31 03:26:24;;;;;;;5.93;2.00;;;14.90;63.60;;;;;;5090161;28;20650;-44
2023/01/31 03:29:07;;;;;;;5.50;1.90;;;14.80;63.40;;;;;;5090806;28;20200;-43
2023/01/31 03:31:45;;;;;;;5.67;1.93;;;14.90;63.50;;;;;;5102581;28;20204;-44
2023/01/31 03:34:21;;;;;;;6.03;2.43;;;14.80;63.40;;;;;;5081818;28;20220;-44
2023/01/31 03:37:12;;;;;;;5.37;2.50;;;14.80;63.70;;;;;;5099295;27;20433;-45
2023/01/31 03:40:00;;;;;;;4.77;2.40;;;14.90;63.50;;;;;;5099994;27;20281;-43
2023/01/31 03:43:04;;;;;;;4.20;2.23;;;14.80;63.50;;;;;;5100423;28;20478;-43
2023/01/31 03:46:09;;;;;;;6.40;2.47;;;14.80;63.50;;;;;;5092003;28;20196;-44
2023/01/31 03:48:46;;;;;;;4.10;2.13;;;14.90;63.60;;;;;;5107716;27;21053;-45
2023/01/31 03:51:23;;;;;;;4.63;2.47;;;14.80;63.60;;;;;;5086766;28;20213;-43
2023/01/31 03:54:00;;;;;;;4.30;2.00;;;14.80;63.60;;;;;;5109668;27;20200;-44
2023/01/31 03:56:37;;;;;;;6.07;2.43;;;14.80;63.60;;;;;;5090268;28;20188;-43
2023/01/31 03:59:24;;;;;;;3.73;2.33;;;14.90;63.60;;;;;;5109507;27;20490;-44
2023/01/31 04:02:02;;;;;;;4.20;2.37;;;14.80;63.50;;;;;;5092677;28;20277;-44
2023/01/31 04:04:56;;;;;;;5.83;2.70;;;14.80;63.50;;;;;;5074836;28;20195;-44
2023/01/31 04:07:27;;;;;;;6.20;2.23;;;14.80;63.50;;;;;;5091944;27;20208;-44
2023/01/31 04:09:59;;;;;;;4.23;2.33;;;14.80;63.50;;;;;;5111235;27;20207;-43
2023/01/31 04:12:30;;;;;;;5.30;2.43;;;14.80;63.50;;;;;;5107435;27;20554;-43
2023/01/31 04:14:58;;;;;;;5.00;2.60;;;14.80;63.40;;;;;;5107638;27;20323;-44
2023/01/31 04:17:29;;;;;;;4.00;2.20;;;14.80;63.70;;;;;;5107973;28;20656;-43
2023/01/31 04:20:01;;;;;;;3.90;2.13;;;14.80;63.40;;;;;;5091107;28;20216;-45
2023/01/31 04:22:31;;;;;;;5.60;2.10;;;14.80;63.50;;;;;;5106573;28;20576;-44
2023/01/31 04:25:03;;;;;;;5.90;2.20;;;14.80;63.40;;;;;;5108793;28;20202;-44
2023/01/31 04:27:31;;;;;;;4.17;2.50;;;14.80;63.40;;;;;;5098908;27;20657;-43
2023/01/31 04:30:03;;;;;;;5.60;2.43;;;14.80;63.40;;;;;;5098824;28;20200;-43
2023/01/31 04:32:32;;;;;;;4.27;2.40;;;14.80;63.40;;;;;;5116323;27;20258;-45
2023/01/31 04:35:05;;;;;;;4.73;2.70;;;14.80;63.30;;;;;;5105940;28;20313;-45
2023/01/31 04:37:37;;;;;;;5.77;2.43;;;14.80;63.30;;;;;;5111536;27;20223;-45
2023/01/31 04:40:06;;;;;;;5.07;2.40;;;14.80;63.30;;;;;;5109971;27;20200;-44
2023/01/31 04:42:39;;;;;;;7.10;2.67;;;14.80;63.30;;;;;;5105571;27;20212;-44
2023/01/31 04:45:10;;;;;;;4.50;2.43;;;14.80;63.30;;;;;;5113618;27;20254;-44
2023/01/31 04:47:40;;;;;;;6.07;2.77;;;14.80;63.30;;;;;;5108138;28;20188;-45
2023/01/31 04:50:12;;;;;;;4.57;2.30;;;14.80;63.40;;;;;;5108568;28;20242;-44
2023/01/31 04:52:41;;;;;;;7.03;3.00;;;14.80;63.30;;;;;;5106116;27;20858;-43
2023/01/31 04:55:11;;;;;;;5.87;2.50;;;14.80;63.40;;;;;;5090527;28;20518;-44
2023/01/31 04:57:41;;;;;;;3.60;2.30;;;14.80;63.30;;;;;;5108757;28;20214;-44
2023/01/31 05:00:14;;;;;;;4.50;2.70;;;14.80;63.30;;;;;;5110593;27;20197;-43
2023/01/31 05:02:44;;;;;;;3.50;2.30;;;14.80;63.30;;;;;;5102564;27;20196;-44
2023/01/31 05:05:14;;;;;;;7.57;2.53;;;14.80;63.30;;;;;;5089341;28;20215;-45
2023/01/31 05:07:44;;;;;;;7.13;3.10;;;14.80;63.30;;;;;;5108618;28;20204;-45
2023/01/31 05:10:15;;;;;;;5.97;2.33;;;14.80;63.30;;;;;;5074137;28;20200;-43
2023/01/31 05:12:47;;;;;;;4.70;2.07;;;14.70;63.30;;;;;;5106580;28;20213;-46
2023/01/31 05:15:16;;;;;;;4.80;2.70;;;14.80;63.30;;;;;;5079639;27;20208;-43
2023/01/31 05:17:52;;;;;;;8.67;3.00;;;14.70;63.20;;;;;;5084915;28;20576;-45
2023/01/31 05:20:29;;;;;;;4.97;2.70;;;14.70;63.30;;;;;;5086139;28;20541;-43
2023/01/31 05:23:06;;;;;;;3.90;2.50;;;14.80;63.30;;;;;;5108616;28;20640;-44
2023/01/31 05:25:52;;;;;;;6.07;2.90;;;14.70;63.30;;;;;;5092608;28;20204;-45
2023/01/31 05:28:26;;;;;;;5.43;2.83;;;14.70;63.40;;;;;;5105085;28;20273;-45
2023/01/31 05:31:05;;;;;;;9.27;2.93;;;14.70;63.30;;;;;;5105830;28;20203;-45
2023/01/31 05:33:35;;;;;;;5.07;2.70;;;14.70;63.40;;;;;;5078397;28;20263;-45
2023/01/31 05:36:12;;;;;;;5.53;2.47;;;14.70;63.20;;;;;;5087462;28;20216;-44
2023/01/31 05:38:44;;;;;;;5.60;2.70;;;14.80;63.20;;;;;;5080477;28;20672;-46
2023/01/31 05:41:12;;;;;;;7.10;2.83;;;14.70;63.20;;;;;;5091212;28;20204;-45
2023/01/31 05:43:46;;;;;;;4.57;2.50;;;14.70;63.20;;;;;;5092439;28;20219;-45
2023/01/31 05:46:16;;;;;;;5.07;2.60;;;14.70;63.20;;;;;;5087300;28;20219;-45
2023/01/31 05:48:49;;;;;;;5.50;2.50;;;14.80;63.10;;;;;;5085076;28;20212;-44
2023/01/31 05:51:19;;;;;;;4.90;2.47;;;14.70;63.10;;;;;;5084022;28;20533;-44
2023/01/31 05:53:51;;;;;;;4.97;2.73;;;14.70;62.90;;;;;;5073956;28;20227;-43
2023/01/31 05:56:24;;;;;;;7.57;2.80;;;14.70;62.90;;;;;;5089771;28;20197;-44
2023/01/31 05:58:54;;;;;;;5.63;2.80;;;14.70;62.80;;;;;;5087314;28;20193;-44
2023/01/31 06:01:28;;;;;;;4.90;2.40;;;14.70;62.80;;;;;;5082279;28;20192;-44
2023/01/31 06:03:58;;;;;;;5.63;2.80;;;14.70;62.70;;;;;;5082490;28;20208;-44
2023/01/31 06:06:28;;;;;;;7.53;2.57;;;14.70;62.60;;;;;;5084517;28;20193;-43
2023/01/31 06:08:57;;;;;;;5.17;2.63;;;14.70;62.60;;;;;;5086299;28;20181;-43
2023/01/31 06:11:28;;;;;;;7.00;3.13;;;14.70;62.60;;;;;;5086532;28;20193;-44
2023/01/31 06:14:02;;;;;;;4.33;2.47;;;14.70;62.60;;;;;;5086667;28;20272;-44
2023/01/31 06:16:33;;;;;;;4.97;2.90;;;14.70;62.50;;;;;;5080502;28;20201;-43
2023/01/31 06:19:03;;;;;;;6.03;3.30;;;14.70;62.50;;;;;;5097947;28;20192;-43
2023/01/31 06:21:35;;;;;;;7.37;3.17;;;14.70;62.30;;;;;;5090836;28;20189;-43
2023/01/31 06:24:08;;;;;;;5.53;3.10;;;14.70;62.40;;;;;;5091344;28;20201;-45
2023/01/31 06:26:40;;;;;;;4.63;2.70;;;14.70;62.20;;;;;;5087842;28;20203;-43
2023/01/31 06:29:11;;;;;;;6.47;3.43;;;14.70;62.30;;;;;;5088470;28;21074;-44
2023/01/31 06:31:46;;;;;;;4.10;2.70;;;14.70;62.10;;;;;;5091391;28;20201;-44
2023/01/31 06:34:15;;;;;;;5.77;3.00;;;14.70;62.00;;;;;;5107671;27;20228;-44
2023/01/31 06:36:47;;;;;;;5.60;2.90;;;14.70;62.00;;;;;;5090529;28;20303;-47
2023/01/31 06:39:18;;;;;;;6.93;3.40;;;14.70;61.80;;;;;;5107698;27;20200;-44
2023/01/31 06:41:50;;;;;;;8.20;3.33;;;14.70;61.60;;;;;;5115848;27;20287;-44
2023/01/31 06:44:20;;;;;;;3.73;2.60;;;14.70;61.50;;;;;;5111162;27;20196;-44
2023/01/31 06:46:50;;;;;;;7.00;3.53;;;14.70;61.40;;;;;;5112404;27;20660;-45
2023/01/31 06:49:21;;;;;;;5.43;3.27;;;14.70;61.40;;;;;;5111700;27;20204;-44
2023/01/31 06:51:53;;;;;;;7.27;3.70;;;14.70;61.30;;;;;;5088128;28;20747;-44
2023/01/31 06:54:26;;;;;;;5.97;3.00;;;14.70;61.20;;;;;;5077412;27;20261;-43
2023/01/31 06:56:56;;;;;;;7.00;3.13;;;14.70;61.10;;;;;;5111053;28;20196;-44
2023/01/31 06:59:26;;;;;;;10.87;4.13;;;14.70;61.10;;;;;;5092907;28;20542;-43
2023/01/31 07:01:58;;;;;;;16.93;5.30;;;14.70;61.40;;;;;;5111836;28;20411;-44
2023/01/31 07:04:32;;;;;;;16.90;5.30;;;14.70;61.60;;;;;;5103771;27;20204;-43
2023/01/31 07:07:12;;;;;;;17.97;6.20;;;14.70;61.70;;;;;;5110208;28;20644;-44
2023/01/31 07:09:42;;;;;;;16.97;5.53;;;14.80;61.80;;;;;;5095864;28;21704;-45
2023/01/31 07:12:14;;;;;;;17.73;6.07;;;14.70;61.70;;;;;;5093156;28;20196;-44
2023/01/31 07:14:45;;;;;;;20.20;5.97;;;14.70;61.40;;;;;;5103302;28;20476;-43
2023/01/31 07:17:16;;;;;;;14.80;5.30;;;14.70;61.40;;;;;;5092753;27;20310;-44
2023/01/31 07:19:49;;;;;;;17.03;6.00;;;14.70;61.40;;;;;;5115232;27;20691;-43
2023/01/31 07:22:19;;;;;;;19.13;5.97;;;14.70;61.50;;;;;;5109817;27;20192;-44
2023/01/31 07:24:50;;;;;;;17.60;5.60;;;14.70;61.40;;;;;;5109980;27;20222;-43
2023/01/31 07:27:20;;;;;;;13.00;5.77;;;14.70;61.30;;;;;;5110842;27;20215;-43
2023/01/31 07:29:54;;;;;;;16.87;5.53;;;14.70;61.40;;;;;;5110765;27;20181;-44
2023/01/31 07:32:29;;;;;;;14.90;5.53;;;14.70;61.30;;;;;;5112145;27;20894;-43
2023/01/31 07:34:57;;;;;;;18.23;5.63;;;14.70;61.30;;;;;;5090964;28;20712;-43
2023/01/31 07:37:42;;;;;;;14.33;5.60;;;14.70;61.40;;;;;;5095921;27;20283;-44
2023/01/31 07:40:13;;;;;;;15.17;5.77;;;14.70;61.30;;;;;;5104321;27;20215;-43
2023/01/31 07:42:41;;;;;;;14.10;5.37;;;14.70;61.50;;;;;;5107437;28;20216;-43
2023/01/31 07:45:18;;;;;;;13.63;5.30;;;14.70;61.60;;;;;;5099043;27;20195;-43
2023/01/31 07:48:00;;;;;;;13.03;5.47;;;14.70;61.40;;;;;;5087454;28;20700;-44
2023/01/31 07:50:30;;;;;;;13.37;5.37;;;14.70;61.10;;;;;;5105231;27;20552;-43
2023/01/31 07:53:00;;;;;;;11.73;4.70;;;14.70;61.40;;;;;;5109885;28;20771;-44
2023/01/31 07:55:32;;;;;;;12.90;5.13;;;14.70;61.00;;;;;;5113480;27;20614;-44
2023/01/31 07:58:08;;;;;;;17.57;6.07;;;14.70;61.20;;;;;;5104610;28;20188;-45
2023/01/31 08:03:33;;;;;;;113.30;24.67;;;14.70;62.10;;;;;;5077872;28;20208;-45
2023/01/31 08:06:14;;;;;;;95.13;22.87;;;15.10;62.70;;;;;;5089487;28;20201;-45
2023/01/31 08:08:51;;;;;;;90.00;21.63;;;15.50;62.10;;;;;;5102481;27;20192;-45
2023/01/31 08:11:19;;;;;;;73.73;20.13;;;15.80;61.20;;;;;;5108224;27;20199;-45
2023/01/31 08:14:11;;;;;;;70.60;18.50;;;16.20;60.30;;;;;;5101398;28;20231;-45
2023/01/31 08:16:42;;;;;;;59.57;16.93;;;16.60;59.30;;;;;;5100091;28;20293;-48
2023/01/31 08:19:11;;;;;;;64.13;16.33;;;17.00;58.20;;;;;;5109092;28;20773;-48
2023/01/31 08:21:42;;;;;;;50.97;14.93;;;17.20;57.30;;;;;;5088933;28;20715;-45
2023/01/31 08:24:34;;;;;;;46.10;13.83;;;17.50;56.60;;;;;;5104157;27;20196;-45
2023/01/31 08:27:07;;;;;;;38.27;12.17;;;17.90;55.80;;;;;;5109448;27;20220;-45
2023/01/31 08:29:37;;;;;;;42.50;12.37;;;18.20;55.60;;;;;;5108673;28;20204;-45
2023/01/31 08:32:09;;;;;;;36.97;11.57;;;18.40;54.50;;;;;;5109982;27;20209;-48
2023/01/31 08:34:40;;;;;;;34.67;10.60;;;18.70;53.90;;;;;;5095280;28;20247;-48
2023/01/31 08:37:12;;;;;;;31.27;9.37;;;18.90;53.40;;;;;;5109794;27;20213;-45
2023/01/31 08:39:53;;;;;;;30.30;9.67;;;19.20;52.80;;;;;;5103833;27;20220;-46
2023/01/31 08:42:27;;;;;;;24.40;8.27;;;19.40;52.40;;;;;;5094682;28;20191;-45
2023/01/31 08:44:58;;;;;;;23.70;8.20;;;19.60;52.00;;;;;;5112474;27;20227;-45
2023/01/31 08:47:28;;;;;;;25.03;8.03;;;19.80;51.50;;;;;;5102446;27;20250;-45
2023/01/31 08:49:59;;;;;;;23.13;7.30;;;20.00;51.10;;;;;;5106362;28;20216;-45
2023/01/31 08:52:34;;;;;;;19.17;7.17;;;20.20;50.80;;;;;;5081428;28;20653;-48
2023/01/31 08:55:05;;;;;;;20.83;7.10;;;20.30;50.70;;;;;;5109675;27;20207;-48
2023/01/31 08:57:39;;;;;;;16.90;6.50;;;20.50;50.10;;;;;;5110589;27;20184;-45
2023/01/31 09:00:27;;;;;;;16.03;5.77;;;20.60;49.90;;;;;;5105013;28;20660;-46
2023/01/31 09:02:58;;;;;;;16.73;5.63;;;20.80;49.60;;;;;;5106959;27;20203;-45
2023/01/31 09:05:29;;;;;;;14.27;5.27;;;20.90;49.40;;;;;;5087232;28;20517;-45
2023/01/31 09:08:02;;;;;;;17.47;5.57;;;21.00;49.10;;;;;;5107425;27;20181;-45
2023/01/31 09:10:30;;;;;;;12.67;5.27;;;21.10;49.10;;;;;;5105684;28;20628;-48
2023/01/31 09:13:02;;;;;;;11.53;4.90;;;21.20;49.00;;;;;;5107545;28;20204;-47
2023/01/31 09:15:29;;;;;;;10.53;4.93;;;21.20;48.80;;;;;;5103805;28;20205;-45
2023/01/31 09:18:00;;;;;;;12.40;4.53;;;21.20;48.30;;;;;;5107772;28;20620;-45
2023/01/31 09:20:30;;;;;;;9.80;4.40;;;21.10;48.20;;;;;;5106965;28;20188;-45
2023/01/31 09:23:02;;;;;;;11.93;4.00;;;20.90;48.50;;;;;;5108792;28;20300;-45
2023/01/31 09:25:31;;;;;;;11.97;4.20;;;20.70;48.40;;;;;;5102564;28;20192;-48
2023/01/31 09:28:13;;;;;;;10.67;4.40;;;20.50;49.00;;;;;;5106878;28;20286;-48
2023/01/31 09:30:52;;;;;;;8.83;3.83;;;20.40;49.40;;;;;;5106015;28;20188;-48
2023/01/31 09:33:24;;;;;;;10.17;3.80;;;20.20;49.40;;;;;;5099523;28;20251;-48
2023/01/31 09:35:58;;;;;;;9.53;4.00;;;20.20;49.30;;;;;;5105071;28;20231;-45
2023/01/31 09:38:26;;;;;;;8.37;4.00;;;20.10;50.40;;;;;;5091432;28;20212;-46
2023/01/31 09:41:02;;;;;;;8.57;3.60;;;20.00;49.70;;;;;;5089730;28;20613;-45
2023/01/31 09:43:49;;;;;;;8.60;3.50;;;19.90;49.60;;;;;;5073743;28;20192;-46
2023/01/31 09:46:23;;;;;;;9.57;3.77;;;19.80;50.00;;;;;;5091643;28;20872;-48
2023/01/31 09:48:57;;;;;;;7.07;3.67;;;19.80;50.10;;;;;;5088363;28;20196;-48
2023/01/31 09:51:28;;;;;;;8.17;3.37;;;19.70;50.00;;;;;;5104325;28;20218;-45
2023/01/31 09:54:00;;;;;;;9.47;3.50;;;19.60;50.30;;;;;;5097785;28;20246;-45
2023/01/31 09:56:39;;;;;;;8.70;3.13;;;19.60;50.20;;;;;;5095748;27;20753;-47
2023/01/31 09:59:21;;;;;;;9.83;3.30;;;19.60;50.50;;;;;;5097699;27;21908;-47
2023/01/31 10:02:09;;;;;;;7.10;3.00;;;19.50;50.50;;;;;;5093178;27;20249;-47
2023/01/31 10:05:14;;;;;;;6.07;2.83;;;19.50;50.50;;;;;;5099410;28;20653;-47
2023/01/31 10:08:02;;;;;;;8.07;2.80;;;19.40;50.70;;;;;;5109471;28;20233;-47
2023/01/31 10:11:11;;;;;;;7.77;3.20;;;19.40;50.80;;;;;;5103510;28;20207;-45
2023/01/31 10:14:03;;;;;;;7.47;3.20;;;19.40;50.80;;;;;;5048588;28;20232;-45
2023/01/31 10:17:07;;;;;;;9.50;3.10;;;19.30;50.90;;;;;;5046821;28;20334;-48
2023/01/31 10:19:55;;;;;;;7.03;3.10;;;19.30;51.70;;;;;;5026302;28;20198;-48
2023/01/31 10:23:03;;;;;;;5.53;2.93;;;19.20;51.00;;;;;;5054399;28;20198;-45
2023/01/31 10:25:55;;;;;;;5.07;2.50;;;19.20;51.20;;;;;;5013026;28;20225;-46
2023/01/31 10:29:04;;;;;;;4.07;2.40;;;19.20;51.10;;;;;;5016196;28;20779;-45
2023/01/31 10:31:51;;;;;;;5.63;2.27;;;19.10;51.30;;;;;;5106208;28;20193;-47
2023/01/31 10:34:58;;;;;;;5.00;2.60;;;19.10;51.40;;;;;;5115130;27;20238;-46
2023/01/31 10:37:45;;;;;;;9.17;2.73;;;19.10;51.40;;;;;;5106210;27;20219;-47
2023/01/31 10:40:29;;;;;;;4.17;2.30;;;19.10;51.50;;;;;;5089523;28;20216;-47
2023/01/31 10:43:43;;;;;;;4.63;1.97;;;19.00;51.60;;;;;;5092927;28;20196;-47
2023/01/31 10:46:23;;;;;;;5.40;2.60;;;19.00;51.60;;;;;;5100627;28;20702;-46
2023/01/31 10:48:55;;;;;;;4.70;2.30;;;19.00;51.90;;;;;;5090939;28;20646;-46
2023/01/31 10:52:03;;;;;;;5.77;2.63;;;18.90;52.00;;;;;;5110259;27;20218;-49
2023/01/31 10:54:56;;;;;;;5.63;2.00;;;18.90;52.10;;;;;;5093256;27;20205;-46
2023/01/31 10:57:32;;;;;;;6.30;2.50;;;18.90;52.30;;;;;;5102647;28;20220;-46
2023/01/31 11:00:29;;;;;;;5.97;2.40;;;18.90;52.20;;;;;;5106571;28;20196;-46
2023/01/31 11:03:03;;;;;;;3.27;2.07;;;18.90;52.70;;;;;;5102388;28;20240;-45
2023/01/31 11:05:39;;;;;;;4.67;2.30;;;18.80;52.50;;;;;;5109470;28;20261;-44
2023/01/31 11:08:31;;;;;;;5.67;2.20;;;18.80;52.90;;;;;;5074946;28;20204;-44
2023/01/31 11:11:09;;;;;;;17.13;3.10;;;18.70;52.80;;;;;;5105482;27;20198;-47
2023/01/31 11:13:39;;;;;;;8.17;2.77;;;18.70;52.40;;;;;;5094293;28;20204;-47
2023/01/31 11:16:13;;;;;;;5.70;2.37;;;18.60;52.20;;;;;;5091374;28;20219;-45
2023/01/31 11:18:49;;;;;;;7.03;2.20;;;18.50;52.00;;;;;;5102818;27;20196;-45
2023/01/31 11:21:33;;;;;;;8.13;2.23;;;18.40;52.10;;;;;;5109187;27;20296;-45
2023/01/31 11:24:06;;;;;;;3.63;2.50;;;18.40;52.40;;;;;;5092871;28;20192;-45
2023/01/31 11:26:39;;;;;;;5.03;2.13;;;18.30;52.40;;;;;;5103161;28;20192;-46
2023/01/31 11:29:17;;;;;;;6.13;2.30;;;18.30;52.60;;;;;;5091070;28;20575;-47
2023/01/31 11:31:47;;;;;;;6.07;2.10;;;18.20;52.60;;;;;;5090991;28;20645;-47
2023/01/31 11:34:29;;;;;;;4.47;2.17;;;18.10;52.70;;;;;;5087184;28;20247;-47
2023/01/31 11:37:20;;;;;;;4.33;2.10;;;18.10;52.90;;;;;;5090303;28;20193;-47
2023/01/31 11:40:00;;;;;;;5.17;2.20;;;18.00;53.10;;;;;;5080491;28;20216;-47
2023/01/31 11:42:31;;;;;;;5.57;2.30;;;18.00;53.10;;;;;;5087506;28;20273;-47
2023/01/31 11:45:26;;;;;;;4.27;2.43;;;17.90;53.20;;;;;;5089470;28;20193;-47
2023/01/31 11:48:07;;;;;;;6.53;2.20;;;17.80;53.10;;;;;;5079724;28;20854;-45
2023/01/31 11:50:40;;;;;;;5.10;2.33;;;17.80;53.30;;;;;;5079035;28;20703;-44
2023/01/31 11:53:25;;;;;;;7.37;2.50;;;17.80;53.40;;;;;;5067678;28;20596;-45
2023/01/31 11:56:11;;;;;;;5.00;2.40;;;17.80;53.40;;;;;;5087673;28;20200;-46
2023/01/31 11:58:45;;;;;;;3.70;1.90;;;17.70;53.50;;;;;;5080210;28;20196;-47
2023/01/31 12:01:21;;;;;;;2.90;1.70;;;17.70;53.60;;;;;;5086466;28;20200;-45
2023/01/31 12:04:16;;;;;;;7.57;2.50;;;17.60;53.60;;;;;;5060868;28;20235;-45
2023/01/31 12:07:22;;;;;;;6.13;2.27;;;17.70;54.10;;;;;;5083141;28;20212;-45
2023/01/31 12:09:58;;;;;;;4.23;2.17;;;17.80;54.50;;;;;;5087180;28;20193;-45
2023/01/31 12:12:34;;;;;;;5.73;1.70;;;17.80;54.70;;;;;;5080120;28;20205;-47
2023/01/31 12:15:23;;;;;;;4.43;1.67;;;18.00;54.70;;;;;;5078683;28;20239;-48
2023/01/31 12:17:53;;;;;;;5.00;2.23;;;18.20;54.70;;;;;;5085830;28;20208;-47
2023/01/31 12:20:46;;;;;;;3.73;2.10;;;18.40;54.70;;;;;;5089135;28;20203;-48
2023/01/31 12:23:47;;;;;;;8.30;1.90;;;18.50;54.50;;;;;;5083307;28;20201;-48
2023/01/31 12:26:52;;;;;;;4.43;1.53;;;18.60;54.20;;;;;;5076767;28;20200;-44
2023/01/31 12:29:41;;;;;;;2.60;1.57;;;18.90;54.00;;;;;;5086433;28;20203;-44
2023/01/31 12:32:38;;;;;;;3.60;1.70;;;19.10;53.90;;;;;;5092499;28;20622;-48
2023/01/31 12:35:37;;;;;;;3.73;1.40;;;19.20;53.80;;;;;;5094654;27;20326;-45
2023/01/31 12:38:39;;;;;;;3.80;1.83;;;19.30;53.50;;;;;;5104550;28;20203;-45
2023/01/31 12:41:49;;;;;;;4.20;1.70;;;19.50;53.20;;;;;;5107038;27;20644;-48
2023/01/31 12:45:05;;;;;;;3.03;1.57;;;19.80;52.90;;;;;;5023614;28;20213;-48
2023/01/31 12:48:08;;;;;;;3.20;1.60;;;20.20;52.20;;;;;;5096174;27;20622;-45
2023/01/31 12:51:06;;;;;;;3.63;1.60;;;20.60;51.40;;;;;;5100730;27;20188;-47
2023/01/31 12:53:53;;;;;;;5.13;1.57;;;20.90;50.70;;;;;;5110313;27;20192;-47
2023/01/31 12:56:55;;;;;;;3.67;2.10;;;21.20;50.20;;;;;;5108109;28;20269;-48
2023/01/31 13:00:10;;;;;;;4.17;1.73;;;21.40;49.80;;;;;;5098415;28;20199;-46
2023/01/31 13:03:10;;;;;;;3.67;1.70;;;21.70;49.50;;;;;;5088513;27;20519;-48
2023/01/31 13:05:52;;;;;;;4.23;1.50;;;21.90;49.00;;;;;;5110672;28;20222;-46
2023/01/31 13:08:31;;;;;;;3.23;2.00;;;22.00;48.50;;;;;;5102744;28;20180;-45
2023/01/31 13:11:07;;;;;;;2.53;1.77;;;22.20;48.00;;;;;;5101119;27;20511;-48
2023/01/31 13:13:52;;;;;;;4.00;1.87;;;22.40;47.90;;;;;;5116384;27;20184;-48
2023/01/31 13:16:55;;;;;;;4.43;1.93;;;22.60;47.70;;;;;;5095617;28;20211;-45
2023/01/31 13:19:52;;;;;;;2.60;1.40;;;22.70;47.50;;;;;;5118373;27;20188;-45
2023/01/31 13:22:45;;;;;;;2.57;1.47;;;22.80;47.20;;;;;;5094647;28;20199;-45
2023/01/31 13:25:27;;;;;;;3.30;1.60;;;22.90;46.70;;;;;;5090695;28;20924;-45
2023/01/31 13:28:11;;;;;;;2.37;1.50;;;23.10;46.70;;;;;;5103369;28;20216;-45
2023/01/31 13:30:59;;;;;;;2.20;1.70;;;23.20;46.30;;;;;;5085172;28;20617;-45
2023/01/31 13:33:30;;;;;;;2.27;1.43;;;23.30;46.00;;;;;;5112667;28;20235;-45
2023/01/31 13:36:11;;;;;;;3.17;1.70;;;23.50;46.00;;;;;;5108071;28;20208;-46
2023/01/31 13:38:44;;;;;;;2.43;1.50;;;23.60;45.80;;;;;;5099923;28;20611;-46
2023/01/31 13:41:31;;;;;;;2.90;1.60;;;23.70;45.60;;;;;;5091185;28;20199;-45
2023/01/31 13:44:01;;;;;;;2.67;1.60;;;23.80;45.40;;;;;;5091982;28;20193;-45
2023/01/31 13:46:46;;;;;;;3.40;1.40;;;23.90;45.10;;;;;;5091574;28;20194;-46
2023/01/31 13:49:39;;;;;;;4.13;1.60;;;24.00;45.00;;;;;;5092902;28;20191;-44
2023/01/31 13:52:52;;;;;;;2.30;1.50;;;24.10;44.90;;;;;;5090360;28;20220;-48
2023/01/31 13:55:30;;;;;;;2.40;1.70;;;24.20;44.80;;;;;;5043795;28;20755;-48